Date,TemperatureHighF,TemperatureAvgF,TemperatureLowF,DewpointHighF,DewpointAvgF,DewpointLowF,HumidityHigh,HumidityAvg,HumidityLow,PressureMaxIn,PressureMinIn,WindSpeedMaxMPH,WindSpeedAvgMPH,GustSpeedMaxMPH,PrecipitationSumIn
2013-10-1,84,70,59,66,63,56,97,80,51,29.94,29.85,16,8,26,0.00
2013-10-2,83,71,59,65,57,40,99,68,27,30.05,29.92,16,6,21,0.00
2013-10-3,80,71,66,72,68,64,99,91,73,29.92,29.78,12,5,16,0.24
2013-10-4,77,71,66,73,68,64,98,93,77,29.95,29.85,15,6,18,0.51
2013-10-5,77,70,59,74,67,52,98,90,74,29.88,29.73,14,6,20,0.11
2013-10-6,59,50,44,54,43,40,97,79,55,29.80,29.71,14,6,20,0.00
2013-10-7,71,56,41,51,47,41,99,76,42,30.07,29.78,13,6,18,0.01
2013-10-8,78,63,48,54,48,45,93,64,31,30.17,30.07,13,4,17,0.00
2013-10-9,75,61,49,52,47,43,91,64,32,30.20,30.09,10,5,14,0.00
2013-10-10,77,62,50,57,52,46,89,73,47,30.15,30.00,9,4,14,0.00
2013-10-11,79,66,56,62,56,53,91,72,46,30.02,29.87,14,8,22,0.00
2013-10-12,72,63,48,63,53,40,91,70,35,30.19,29.88,13,6,21,0.00
2013-10-13,65,52,39,46,39,33,95,63,32,30.40,30.19,9,3,15,0.00
2013-10-14,66,52,36,48,42,33,93,71,44,30.40,30.07,15,8,19,0.00
2013-10-15,69,58,46,64,51,42,98,79,64,30.07,29.75,17,10,20,0.20
2013-10-16,53,50,44,48,46,42,94,86,80,29.96,29.84,13,8,19,0.00
2013-10-17,59,50,44,48,44,38,98,82,49,29.94,29.83,11,5,16,0.17
2013-10-18,49,45,36,43,40,35,98,83,70,29.98,29.84,12,5,17,0.00
2013-10-19,54,44,33,41,38,32,95,79,50,29.95,29.79,16,6,22,0.00
2013-10-20,63,49,37,48,42,34,97,79,54,29.86,29.72,12,4,16,0.00
2013-10-21,55,43,31,46,32,25,84,66,43,30.00,29.81,17,8,24,0.00
2013-10-22,38,34,27,37,32,24,98,92,75,30.02,29.93,8,3,10,0.08
2013-10-23,44,37,32,35,32,30,98,82,63,30.07,29.97,10,5,15,0.01
2013-10-24,40,37,29,35,29,24,90,73,55,30.35,30.06,14,7,21,0.00
2013-10-25,53,38,23,35,28,21,94,69,39,30.44,30.06,16,7,24,0.00
2013-10-26,54,46,33,38,32,28,81,60,44,30.11,29.89,18,10,24,0.00
2013-10-27,56,41,28,36,31,26,92,69,39,30.10,29.97,13,5,20,0.00
2013-10-28,59,44,33,45,37,29,87,75,54,30.36,30.06,18,9,21,0.00
2013-10-29,58,47,36,47,40,34,96,78,52,30.35,30.12,14,10,16,0.00
2013-10-30,61,54,50,61,54,46,100,98,88,30.11,29.75,14,7,17,0.81
2013-10-31,64,57,44,63,57,42,100,98,91,29.74,29.26,16,10,25,0.71